< Typhoon 199601 1996 Season Typhoon 199603 >
Typhoon 199602 (ANN)
General InformationTrack Information on Google MapsDetailed Wind InformationList of All Images || Disaster Info.ResourceGoogle EarthGE AnimationAtom FeedGeoJSON
Detalied Best Track (Time Zone = UTC)
Year Month Day Hour Lat. Long. Pressure (hPa) Wind (kt) Class Image Chart
1996 4 1 12 9.0 145.0 1004 0 2 Image Chart
1996 4 1 18 9.0 145.0 1004 0 2 Image Chart
1996 4 2 00 10.0 145.0 1004 0 2 Image Chart
1996 4 2 06 10.0 144.0 1002 0 2 Image Chart
1996 4 2 12 10.0 144.0 1002 0 2 Image Chart
1996 4 2 18 10.0 143.0 1002 0 2 Image Chart
1996 4 3 00 10.5 142.5 1002 0 2 Image Chart
1996 4 3 06 11.1 141.4 1002 0 2 Image Chart
1996 4 3 12 11.1 141.1 1002 0 2 Image Chart
1996 4 3 18 10.8 140.7 1002 0 2 Image Chart
1996 4 4 00 10.0 140.0 1004 0 2 Image Chart
1996 4 4 06 9.0 139.0 1004 0 2 Image Chart
1996 4 4 12 8.5 137.0 1004 0 2 Image Chart
1996 4 4 18 8.5 135.5 1004 0 2 Image Chart
1996 4 5 00 9.2 134.2 1004 0 2 Image Chart
1996 4 5 06 9.8 132.5 1004 0 2 Image Chart
1996 4 5 12 10.0 131.5 1004 0 2 Image Chart
1996 4 5 18 10.2 130.5 1000 35 3 Image Chart
1996 4 6 00 10.2 129.7 1000 35 3 Image Chart
1996 4 6 06 10.3 128.9 1000 35 3 Image Chart
1996 4 6 12 10.6 127.3 1000 35 3 Image Chart
1996 4 6 18 10.6 126.2 1000 35 3 Image Chart
1996 4 7 00 10.6 125.9 1000 35 3 Image Chart
1996 4 7 06 11.2 125.3 1000 35 3 Image Chart
1996 4 7 12 12.0 123.9 1000 35 3 Image Chart
1996 4 7 18 12.2 123.2 1000 35 3 Image Chart
1996 4 8 00 12.2 123.2 1002 0 2 Image Chart
1996 4 8 06 12.0 123.0 1002 0 2 Image Chart
1996 4 8 12 12.0 123.0 1004 0 2 Image Chart
1996 4 8 18 12.0 123.0 1004 0 2 Image Chart
1996 4 9 00 12.3 122.9 1006 0 2 Image Chart
1996 4 9 06 12.1 122.5 1004 0 2 Image Chart
1996 4 9 12 12.1 121.8 1004 0 2 Image Chart
1996 4 9 18 12.1 120.5 1004 0 2 Image Chart
1996 4 10 00 12.2 119.7 1004 0 2 Image Chart
1996 4 10 06 12.4 119.6 1004 0 2 Image Chart
Japan Meteorological Agency Best Track Data | Correction Date : 1997-01-07
< Typhoon 199601 1996 Season Typhoon 199603 >

Help